Time;durP1;ratioP1;P1;durP2;ratioP2;P2;SDS_P1;SDS_P2;PMS_P1;PMS_P2;Temp;Humidity;BMP_temperature;BMP_pressure;BME280_temperature;BME280_humidity;BME280_pressure;Samples;Min_cycle;Max_cycle;Signal;HPM_P1;HPM_P2
2020/12/22 00:00:40;;;;;;;8.80;5.03;;;128.20;2150.40;;;;;;5080020;28;20325;-65
2020/12/22 00:03:06;;;;;;;9.77;5.53;;;128.20;2150.40;;;;;;5079428;28;20055;-66
2020/12/22 00:05:32;;;;;;;10.15;6.25;;;128.10;2124.80;;;;;;5080028;28;20032;-66
2020/12/22 00:07:58;;;;;;;8.05;4.80;;;128.30;2150.40;;;;;;5079072;28;20047;-65
2020/12/22 00:10:24;;;;;;;8.55;5.00;;;128.20;2124.80;;;;;;5079338;28;20311;-67
2020/12/22 00:12:49;;;;;;;8.38;4.63;;;128.00;2150.40;;;;;;5079225;28;20031;-65
2020/12/22 00:15:15;;;;;;;7.10;4.13;;;128.10;2150.40;;;;;;5079264;28;20414;-65
2020/12/22 00:17:44;;;;;;;8.35;5.05;;;128.20;2150.40;;;;;;5080020;28;20082;-66
2020/12/22 00:20:11;;;;;;;8.02;4.90;;;128.10;2124.80;;;;;;5079883;28;20117;-66
2020/12/22 00:22:36;;;;;;;10.68;5.45;;;128.00;2124.80;;;;;;5079659;28;20039;-66
2020/12/22 00:25:04;;;;;;;8.68;5.20;;;128.10;2124.80;;;;;;5079612;28;20028;-65
2020/12/22 00:27:33;;;;;;;8.82;5.00;;;128.20;2099.20;;;;;;5078730;28;20031;-67
2020/12/22 00:30:00;;;;;;;8.88;5.13;;;103.30;2099.20;;;;;;5079788;28;20029;-65
2020/12/22 00:32:25;;;;;;;8.25;4.80;;;103.30;2099.20;;;;;;5079762;28;20082;-66
2020/12/22 00:34:51;;;;;;;9.55;5.28;;;103.20;2124.80;;;;;;5079445;28;20032;-66
2020/12/22 00:37:17;;;;;;;7.97;5.28;;;103.20;2099.20;;;;;;5079126;28;20414;-66
2020/12/22 00:39:43;;;;;;;8.13;4.93;;;103.10;2124.80;;;;;;5079931;28;20060;-65
2020/12/22 00:42:08;;;;;;;10.77;5.63;;;103.00;2124.80;;;;;;5079315;28;20094;-67
2020/12/22 00:44:34;;;;;;;9.80;5.28;;;103.00;2124.80;;;;;;5079536;28;20028;-66
2020/12/22 00:47:00;;;;;;;10.57;6.13;;;102.80;2150.40;;;;;;5079478;28;20074;-66
2020/12/22 00:49:26;;;;;;;10.02;5.90;;;102.80;2124.80;;;;;;5078638;28;20055;-66
2020/12/22 00:51:51;;;;;;;8.05;4.90;;;102.90;2124.80;;;;;;5078824;28;20035;-65
2020/12/22 00:54:17;;;;;;;9.77;5.90;;;103.00;2124.80;;;;;;5079096;28;20025;-66
2020/12/22 00:56:47;;;;;;;8.15;5.07;;;102.90;2150.40;;;;;;5078463;28;20032;-66
2020/12/22 00:59:13;;;;;;;8.98;5.32;;;103.10;2150.40;;;;;;5079235;28;20036;-67
2020/12/22 01:01:39;;;;;;;8.90;5.55;;;103.20;2124.80;;;;;;5079184;28;20116;-66
2020/12/22 01:04:04;;;;;;;8.43;4.85;;;103.20;2124.80;;;;;;5078837;28;20086;-66
2020/12/22 01:06:36;;;;;;;9.55;5.55;;;103.20;2124.80;;;;;;5078516;28;20027;-67
2020/12/22 01:09:02;;;;;;;8.45;4.65;;;103.30;2124.80;;;;;;5078531;28;20123;-65
2020/12/22 01:11:41;;;;;;;8.45;4.63;;;103.30;2099.20;;;;;;5078720;28;20420;-65
2020/12/22 01:14:08;;;;;;;7.10;4.20;;;128.00;2124.80;;;;;;5078457;28;20024;-66
2020/12/22 01:16:34;;;;;;;6.43;4.10;;;128.10;2124.80;;;;;;5078305;28;20368;-65
2020/12/22 01:19:00;;;;;;;6.25;3.88;;;128.10;2099.20;;;;;;5078249;28;20085;-66
2020/12/22 01:21:25;;;;;;;7.07;3.92;;;128.10;2124.80;;;;;;5078379;28;20024;-65
2020/12/22 01:23:51;;;;;;;7.35;4.25;;;128.20;2099.20;;;;;;5078460;28;20033;-66
2020/12/22 01:26:21;;;;;;;6.55;3.92;;;128.00;2124.80;;;;;;5078354;28;20024;-66
2020/12/22 01:28:47;;;;;;;7.47;4.88;;;103.30;2099.20;;;;;;5078394;28;20031;-66
2020/12/22 01:31:21;;;;;;;7.72;4.72;;;103.30;2099.20;;;;;;5077959;28;20036;-66
2020/12/22 01:33:46;;;;;;;8.63;4.63;;;128.20;2099.20;;;;;;5078617;28;20307;-66
2020/12/22 01:36:12;;;;;;;7.63;4.22;;;128.10;2099.20;;;;;;5078171;28;20046;-66
2020/12/22 01:38:38;;;;;;;7.70;5.10;;;128.20;2124.80;;;;;;5077971;28;20110;-65
2020/12/22 01:41:03;;;;;;;7.18;4.22;;;128.10;2124.80;;;;;;5077439;28;20103;-66
2020/12/22 01:43:29;;;;;;;7.97;4.53;;;128.00;2124.80;;;;;;5078071;28;20103;-67
2020/12/22 01:45:55;;;;;;;9.35;5.25;;;128.20;2124.80;;;;;;5077187;28;20418;-65
2020/12/22 01:48:21;;;;;;;7.93;5.05;;;103.30;2124.80;;;;;;5078014;28;20031;-65
2020/12/22 01:50:47;;;;;;;7.50;4.75;;;128.00;2150.40;;;;;;5077637;28;20028;-66
2020/12/22 01:53:13;;;;;;;7.35;4.60;;;128.20;2124.80;;;;;;5077821;28;20028;-67
2020/12/22 01:55:42;;;;;;;11.20;7.00;;;128.00;2124.80;;;;;;5077748;28;20033;-65
2020/12/22 01:58:09;;;;;;;15.65;7.57;;;128.10;2124.80;;;;;;5078104;28;20402;-66
2020/12/22 02:00:35;;;;;;;12.50;6.50;;;128.10;2124.80;;;;;;5077451;28;20028;-65
2020/12/22 02:03:03;;;;;;;14.18;6.57;;;128.10;2124.80;;;;;;5077723;28;20403;-65
2020/12/22 02:05:30;;;;;;;10.17;6.07;;;128.00;2124.80;;;;;;5077404;28;20326;-66
2020/12/22 02:07:56;;;;;;;7.95;4.60;;;128.10;2124.80;;;;;;5077360;28;20055;-66
2020/12/22 02:10:22;;;;;;;9.20;5.32;;;128.10;2150.40;;;;;;5077623;28;20067;-66
2020/12/22 02:12:47;;;;;;;9.68;4.85;;;128.30;2124.80;;;;;;5077261;28;20029;-66
2020/12/22 02:15:13;;;;;;;10.20;6.03;;;128.30;2124.80;;;;;;5077680;28;20056;-68
2020/12/22 02:17:39;;;;;;;10.23;5.20;;;128.20;2124.80;;;;;;5077764;28;20016;-67
2020/12/22 02:20:06;;;;;;;9.93;5.60;;;128.20;2124.80;;;;;;5077419;28;20429;-67
2020/12/22 02:22:34;;;;;;;7.90;4.68;;;128.10;2150.40;;;;;;5076866;28;20387;-67
2020/12/22 02:25:00;;;;;;;8.82;5.15;;;128.10;2150.40;;;;;;5077407;28;20031;-65
2020/12/22 02:27:25;;;;;;;14.80;7.53;;;128.00;2124.80;;;;;;5077347;28;20165;-65
2020/12/22 02:29:51;;;;;;;12.38;7.13;;;103.30;2124.80;;;;;;5077083;28;20484;-66
2020/12/22 02:32:17;;;;;;;11.82;7.10;;;128.00;2124.80;;;;;;5077580;28;20017;-66
2020/12/22 02:34:44;;;;;;;10.93;6.13;;;128.20;2124.80;;;;;;5077027;28;20334;-64
2020/12/22 02:37:10;;;;;;;8.52;4.93;;;128.20;2124.80;;;;;;5077560;28;20032;-66
2020/12/22 02:39:35;;;;;;;8.57;5.53;;;128.20;2124.80;;;;;;5077592;28;20057;-65
2020/12/22 02:42:01;;;;;;;8.93;4.97;;;128.10;2150.40;;;;;;5077002;28;20036;-64
2020/12/22 02:44:27;;;;;;;9.73;6.03;;;128.00;2150.40;;;;;;5077232;28;20021;-66
2020/12/22 02:46:53;;;;;;;7.95;4.68;;;128.00;2150.40;;;;;;5076667;28;20398;-65
2020/12/22 02:49:19;;;;;;;9.30;5.20;;;128.20;2124.80;;;;;;5076599;28;20067;-65
2020/12/22 02:51:45;;;;;;;8.07;4.57;;;128.00;2150.40;;;;;;5076905;28;20051;-66
2020/12/22 02:54:11;;;;;;;13.20;5.07;;;128.10;2150.40;;;;;;5077325;28;20024;-66
2020/12/22 02:56:36;;;;;;;10.15;4.93;;;128.00;2150.40;;;;;;5076926;28;20028;-65
2020/12/22 02:59:02;;;;;;;8.70;5.03;;;128.00;2150.40;;;;;;5077274;28;20093;-66
2020/12/22 03:01:28;;;;;;;8.18;4.95;;;128.00;2150.40;;;;;;5076774;28;20314;-66
2020/12/22 03:03:54;;;;;;;8.32;5.40;;;128.20;2124.80;;;;;;5077062;28;20062;-65
2020/12/22 03:06:19;;;;;;;9.55;5.22;;;128.30;2099.20;;;;;;5076950;28;20021;-65
2020/12/22 03:08:45;;;;;;;9.55;4.85;;;128.30;2099.20;;;;;;5076454;28;20466;-65
2020/12/22 03:11:11;;;;;;;6.97;4.13;;;128.40;2099.20;;;;;;5077270;28;20433;-64
2020/12/22 03:13:37;;;;;;;9.57;5.05;;;128.50;2099.20;;;;;;5076624;28;20357;-66
2020/12/22 03:16:02;;;;;;;21.38;13.48;;;128.30;2124.80;;;;;;5076642;28;20428;-67
2020/12/22 03:18:28;;;;;;;21.10;13.43;;;128.30;2124.80;;;;;;5077193;28;20125;-66
2020/12/22 03:20:54;;;;;;;24.27;12.85;;;128.30;2099.20;;;;;;5076688;28;20037;-65
2020/12/22 03:23:20;;;;;;;16.65;10.60;;;128.30;2099.20;;;;;;5076428;28;20047;-65
2020/12/22 03:25:46;;;;;;;15.85;9.20;;;128.10;2124.80;;;;;;5076516;28;20426;-65
2020/12/22 03:28:11;;;;;;;12.00;6.90;;;128.10;2124.80;;;;;;5077110;28;20055;-64
2020/12/22 03:30:37;;;;;;;10.38;6.85;;;128.00;2124.80;;;;;;5076488;28;20028;-66
2020/12/22 03:33:03;;;;;;;10.43;6.25;;;128.20;2124.80;;;;;;5077011;28;20028;-66
2020/12/22 03:35:29;;;;;;;10.43;6.28;;;128.20;2099.20;;;;;;5076726;28;20047;-64
2020/12/22 03:37:54;;;;;;;10.43;6.28;;;128.20;2099.20;;;;;;5076424;28;20049;-66
2020/12/22 03:40:20;;;;;;;8.85;5.20;;;128.00;2150.40;;;;;;5076981;28;20032;-65
2020/12/22 03:42:46;;;;;;;8.98;5.30;;;128.10;2150.40;;;;;;5076649;28;20028;-65
2020/12/22 03:45:12;;;;;;;8.13;4.80;;;128.00;2150.40;;;;;;5076404;28;20445;-66
2020/12/22 03:47:38;;;;;;;7.93;4.82;;;103.30;2124.80;;;;;;5076290;28;20024;-65
2020/12/22 03:50:04;;;;;;;7.93;4.60;;;128.00;2124.80;;;;;;5076343;28;20024;-64
2020/12/22 03:52:30;;;;;;;7.95;4.22;;;103.30;2099.20;;;;;;5076583;28;20073;-67
2020/12/22 03:54:56;;;;;;;8.95;4.85;;;103.20;2099.20;;;;;;5076544;28;20105;-66
2020/12/22 03:57:21;;;;;;;11.13;5.32;;;103.10;2124.80;;;;;;5076562;28;20041;-66
2020/12/22 03:59:47;;;;;;;8.82;5.32;;;102.80;2150.40;;;;;;5076164;28;20028;-67
2020/12/22 04:02:13;;;;;;;9.15;5.13;;;103.00;2150.40;;;;;;5076167;28;20114;-65
2020/12/22 04:04:39;;;;;;;11.98;6.60;;;103.10;2124.80;;;;;;5079928;28;20059;-65
2020/12/22 04:07:05;;;;;;;10.57;5.70;;;103.20;2124.80;;;;;;5079928;28;20074;-65
2020/12/22 04:09:31;;;;;;;9.55;5.25;;;103.20;2124.80;;;;;;5079887;28;20028;-65
2020/12/22 04:11:56;;;;;;;9.57;5.07;;;103.20;2124.80;;;;;;5079002;28;20422;-66
2020/12/22 04:14:22;;;;;;;10.05;5.53;;;103.30;2124.80;;;;;;5079869;28;20020;-65
2020/12/22 04:16:49;;;;;;;11.30;5.40;;;103.00;2150.40;;;;;;5080028;28;20031;-65
2020/12/22 04:19:15;;;;;;;7.50;4.25;;;103.00;2150.40;;;;;;5078474;28;20421;-66
2020/12/22 04:21:41;;;;;;;8.82;4.93;;;103.00;2150.40;;;;;;5079715;28;20476;-66
2020/12/22 04:24:07;;;;;;;7.07;4.20;;;103.00;2150.40;;;;;;5079708;28;20020;-67
2020/12/22 04:26:33;;;;;;;8.75;4.47;;;103.20;2150.40;;;;;;5079333;28;20020;-66
2020/12/22 04:29:00;;;;;;;7.55;4.82;;;103.30;2124.80;;;;;;5079870;28;20429;-65
2020/12/22 04:31:27;;;;;;;8.50;4.85;;;103.30;2124.80;;;;;;5079522;28;20451;-67
2020/12/22 04:33:55;;;;;;;10.65;5.90;;;128.00;2124.80;;;;;;5079252;28;20077;-66
2020/12/22 04:36:22;;;;;;;11.80;6.15;;;103.10;2150.40;;;;;;5079761;28;20031;-65
2020/12/22 04:38:49;;;;;;;13.60;6.20;;;103.10;2150.40;;;;;;5077729;28;20053;-65
2020/12/22 04:41:18;;;;;;;10.50;5.75;;;103.10;2150.40;;;;;;5079072;28;20029;-64
2020/12/22 04:43:44;;;;;;;;;;;103.10;2150.40;;;;;;5079711;28;20025;-66
2020/12/22 04:46:10;;;;;;;8.07;4.88;;;103.30;2124.80;;;;;;5079251;28;20209;-66
2020/12/22 04:48:39;;;;;;;8.13;4.55;;;128.10;2150.40;;;;;;5078423;28;20021;-66
2020/12/22 04:51:11;;;;;;;9.15;5.20;;;128.40;2124.80;;;;;;5078597;28;20066;-65
2020/12/22 04:53:38;;;;;;;6.90;4.57;;;128.30;2124.80;;;;;;5078934;28;20111;-65
2020/12/22 04:56:06;;;;;;;7.15;4.15;;;128.30;2124.80;;;;;;5079228;28;20073;-66
2020/12/22 04:58:32;;;;;;;7.22;4.07;;;128.40;2124.80;;;;;;5079313;28;20020;-66
2020/12/22 05:00:59;;;;;;;10.73;4.63;;;128.40;2124.80;;;;;;5078348;28;20442;-65
2020/12/22 05:03:25;;;;;;;8.15;4.65;;;128.50;2099.20;;;;;;5078637;28;20059;-64
2020/12/22 05:05:52;;;;;;;9.13;5.03;;;128.50;2099.20;;;;;;5078335;28;20056;-65
2020/12/22 05:08:18;;;;;;;11.02;5.07;;;128.60;2099.20;;;;;;5078248;28;20016;-66
2020/12/22 05:10:45;;;;;;;9.63;5.43;;;128.60;2099.20;;;;;;5079068;28;20114;-66
2020/12/22 05:13:12;;;;;;;8.35;4.28;;;128.50;2099.20;;;;;;5079008;28;20024;-66
2020/12/22 05:15:50;;;;;;;7.25;4.00;;;128.60;2099.20;;;;;;5078298;28;20085;-66
2020/12/22 05:18:20;;;;;;;7.07;3.95;;;128.60;2099.20;;;;;;5078678;28;20429;-64
2020/12/22 05:20:47;;;;;;;9.20;4.97;;;128.70;2073.60;;;;;;5078220;28;20063;-65
2020/12/22 05:23:21;;;;;;;9.82;5.35;;;128.70;2073.60;;;;;;5078502;28;20055;-64
2020/12/22 05:25:51;;;;;;;414.65;220.77;;;128.70;2099.20;;;;;;5077905;28;20103;-65
2020/12/22 05:28:20;;;;;;;595.45;298.10;;;128.80;2073.60;;;;;;5078596;28;20024;-65
2020/12/22 05:30:49;;;;;;;527.22;247.60;;;128.60;2099.20;;;;;;5078566;28;20035;-66
2020/12/22 05:33:15;;;;;;;;;;;128.40;2124.80;;;;;;5078464;28;20410;-66
2020/12/22 05:35:49;;;;;;;231.50;88.18;;;128.50;2124.80;;;;;;5078211;28;19912;-66
2020/12/22 05:38:18;;;;;;;91.18;38.03;;;128.50;2124.80;;;;;;5078426;28;20048;-65
2020/12/22 05:40:45;;;;;;;46.40;21.35;;;128.50;2124.80;;;;;;5078084;28;20033;-64
2020/12/22 05:43:11;;;;;;;51.65;20.70;;;128.50;2099.20;;;;;;5078152;28;20028;-66
2020/12/22 05:45:40;;;;;;;46.75;19.83;;;128.50;2124.80;;;;;;5078353;28;20032;-66
2020/12/22 05:48:13;;;;;;;24.67;10.20;;;128.60;2099.20;;;;;;5078328;28;20024;-67
2020/12/22 05:50:39;;;;;;;23.95;10.15;;;128.60;2099.20;;;;;;5077891;28;20033;-66
2020/12/22 05:53:10;;;;;;;18.23;8.75;;;128.50;2099.20;;;;;;5077653;28;20414;-66
2020/12/22 05:55:36;;;;;;;15.15;8.63;;;128.50;2099.20;;;;;;5077928;28;20111;-66
2020/12/22 05:58:12;;;;;;;18.13;10.40;;;128.60;2099.20;;;;;;5077543;28;20123;-66
2020/12/22 06:00:41;;;;;;;11.63;7.20;;;128.60;2099.20;;;;;;5077457;28;20032;-66
2020/12/22 06:03:15;;;;;;;8.73;5.57;;;128.60;2099.20;;;;;;5078058;28;20410;-65
2020/12/22 06:05:43;;;;;;;10.32;5.80;;;128.50;2099.20;;;;;;5077754;28;20024;-65
2020/12/22 06:08:10;;;;;;;13.15;7.13;;;128.40;2099.20;;;;;;5077357;28;20021;-66
2020/12/22 06:10:37;;;;;;;12.02;7.00;;;128.00;2150.40;;;;;;5077403;28;20410;-65
2020/12/22 06:13:05;;;;;;;14.15;7.38;;;128.10;2124.80;;;;;;5077610;28;20020;-67
2020/12/22 06:15:32;;;;;;;12.95;7.72;;;103.20;2124.80;;;;;;5077852;28;20024;-66
2020/12/22 06:17:58;;;;;;;10.80;6.38;;;103.30;2124.80;;;;;;5077595;28;20302;-65
2020/12/22 06:20:26;;;;;;;11.35;6.60;;;128.10;2124.80;;;;;;5077458;28;20111;-65
2020/12/22 06:22:59;;;;;;;21.75;14.50;;;128.10;2124.80;;;;;;5077775;28;20028;-66
2020/12/22 06:25:25;;;;;;;46.75;31.17;;;103.30;2124.80;;;;;;5076997;28;20418;-65
2020/12/22 06:27:51;;;;;;;29.98;19.45;;;128.00;2150.40;;;;;;5077451;28;20063;-66
2020/12/22 06:30:17;;;;;;;23.10;13.80;;;128.10;2150.40;;;;;;5077394;28;20322;-66
2020/12/22 06:32:44;;;;;;;18.08;11.57;;;128.30;2124.80;;;;;;5077083;28;20103;-65
2020/12/22 06:35:30;;;;;;;18.55;10.60;;;128.40;2099.20;;;;;;5077347;28;20020;-68
2020/12/22 06:37:57;;;;;;;21.63;11.38;;;128.60;2073.60;;;;;;5077181;28;20044;-67
2020/12/22 06:40:52;;;;;;;19.25;10.20;;;128.40;2124.80;;;;;;5076969;28;20032;-68
2020/12/22 06:43:43;;;;;;;43.97;25.35;;;128.60;2099.20;;;;;;5077481;28;20047;-68
2020/12/22 06:46:34;;;;;;;27.10;16.60;;;128.40;2099.20;;;;;;5077144;28;20115;-68
2020/12/22 06:49:00;;;;;;;16.92;8.98;;;128.50;2099.20;;;;;;5077449;28;20447;-67
2020/12/22 06:51:34;;;;;;;23.15;12.95;;;128.40;2099.20;;;;;;5076881;28;20101;-68
2020/12/22 06:54:03;;;;;;;61.90;32.50;;;128.20;2124.80;;;;;;5076829;28;20053;-67
2020/12/22 06:56:58;;;;;;;115.55;55.58;;;128.30;2124.80;;;;;;5077029;28;20032;-66
2020/12/22 06:59:44;;;;;;;21.75;11.07;;;128.70;2073.60;;;;;;5067767;28;20460;-69
2020/12/22 07:02:30;;;;;;;15.98;8.80;;;128.50;2099.20;;;;;;5077294;28;20032;-68
2020/12/22 07:04:57;;;;;;;15.30;9.23;;;128.40;2099.20;;;;;;5076473;28;20414;-68
2020/12/22 07:07:23;;;;;;;15.50;8.85;;;128.30;2124.80;;;;;;5076669;28;20047;-68
2020/12/22 07:10:00;;;;;;;17.58;8.90;;;128.40;2124.80;;;;;;5076673;28;20422;-67
2020/12/22 07:12:26;;;;;;;15.10;8.93;;;128.50;2099.20;;;;;;5076684;28;20020;-68
2020/12/22 07:14:52;;;;;;;19.60;8.82;;;128.50;2099.20;;;;;;5077005;28;20032;-67
2020/12/22 07:17:20;;;;;;;23.55;13.75;;;128.60;2099.20;;;;;;5077181;28;20031;-67
2020/12/22 07:19:48;;;;;;;17.43;9.93;;;128.70;2099.20;;;;;;5076909;28;20078;-68
2020/12/22 07:22:16;;;;;;;59.60;31.77;;;128.90;2073.60;;;;;;5075869;28;20369;-68
2020/12/22 07:24:42;;;;;;;81.15;43.15;;;153.90;2048.00;;;;;;5076848;28;20115;-67
2020/12/22 07:27:08;;;;;;;41.47;21.40;;;153.90;2022.40;;;;;;5077079;28;20063;-69
2020/12/22 07:29:41;;;;;;;24.52;13.05;;;154.00;2022.40;;;;;;5076792;28;20028;-67
2020/12/22 07:32:08;;;;;;;19.80;10.93;;;153.90;2022.40;;;;;;5076733;28;20052;-69
2020/12/22 07:34:35;;;;;;;18.48;10.65;;;154.00;2022.40;;;;;;5076195;28;20399;-67
2020/12/22 07:37:07;;;;;;;18.50;10.80;;;154.10;2022.40;;;;;;5076751;28;20024;-68
2020/12/22 07:39:33;;;;;;;20.20;10.07;;;154.30;1996.80;;;;;;5080394;28;20059;-68
2020/12/22 07:42:19;;;;;;;15.75;10.07;;;154.20;2022.40;;;;;;5080195;28;20467;-68
2020/12/22 07:44:46;;;;;;;16.67;9.27;;;154.20;1996.80;;;;;;5080680;28;20031;-69
2020/12/22 07:47:13;;;;;;;16.88;8.75;;;154.10;1996.80;;;;;;5080318;28;20028;-67
2020/12/22 07:49:40;;;;;;;18.05;9.48;;;154.10;2022.40;;;;;;5080319;28;20046;-68
2020/12/22 07:52:05;;;;;;;16.25;10.38;;;154.50;1996.80;;;;;;5080278;28;20074;-67
2020/12/22 07:54:32;;;;;;;41.65;17.80;;;179.40;1971.20;;;;;;5080147;28;20029;-67
2020/12/22 07:56:59;;;;;;;21.05;12.43;;;179.60;1945.60;;;;;;5079651;28;20444;-69
2020/12/22 07:59:26;;;;;;;17.90;10.98;;;179.60;1945.60;;;;;;5080071;28;20035;-68
2020/12/22 08:01:52;;;;;;;18.58;9.93;;;179.80;1920.00;;;;;;5080312;28;20029;-67
2020/12/22 08:04:23;;;;;;;373.73;186.73;;;179.60;1945.60;;;;;;5079420;28;20031;-68
2020/12/22 08:06:56;;;;;;;34.35;18.48;;;179.90;1945.60;;;;;;5080187;28;20078;-68
2020/12/22 08:09:32;;;;;;;22.40;12.68;;;180.00;1920.00;;;;;;5079655;28;20024;-68
2020/12/22 08:12:06;;;;;;;58.83;36.47;;;179.90;1920.00;;;;;;5074605;28;20036;-68
2020/12/22 08:14:35;;;;;;;23.63;13.80;;;179.90;1920.00;;;;;;5079466;28;20020;-66
2020/12/22 08:17:02;;;;;;;;;;;180.00;1920.00;;;;;;5079641;28;20021;-68
2020/12/22 08:19:34;;;;;;;16.45;8.70;;;180.00;1894.40;;;;;;5079463;28;20301;-68
2020/12/22 08:22:01;;;;;;;19.88;10.10;;;179.60;1945.60;;;;;;5080041;28;20024;-68
2020/12/22 08:24:30;;;;;;;18.10;9.40;;;179.40;1971.20;;;;;;5079728;28;20027;-67
2020/12/22 08:26:57;;;;;;;18.70;10.02;;;179.40;1945.60;;;;;;5079904;28;20029;-68
2020/12/22 08:29:23;;;;;;;17.67;9.40;;;179.40;1971.20;;;;;;5079904;28;20119;-69
2020/12/22 08:31:53;;;;;;;19.92;9.00;;;179.50;1971.20;;;;;;5079517;28;20029;-68
2020/12/22 08:34:19;;;;;;;15.30;9.20;;;179.50;1945.60;;;;;;5079783;28;20028;-71
2020/12/22 08:36:47;;;;;;;18.63;9.88;;;179.40;1971.20;;;;;;5079746;28;20081;-68
2020/12/22 08:39:13;;;;;;;22.77;9.77;;;179.40;1971.20;;;;;;5078701;28;20438;-66
2020/12/22 08:41:44;;;;;;;25.08;12.40;;;179.50;1945.60;;;;;;5078814;28;20020;-68
2020/12/22 08:44:12;;;;;;;27.52;17.33;;;179.60;1945.60;;;;;;5079406;28;20021;-67
2020/12/22 08:46:39;;;;;;;23.90;13.88;;;180.00;1894.40;;;;;;5079307;28;20056;-67
2020/12/22 08:49:16;;;;;;;29.30;20.02;;;204.80;1894.40;;;;;;5079047;28;20457;-67
2020/12/22 08:51:43;;;;;;;22.95;14.32;;;205.00;1868.80;;;;;;5078986;28;20031;-67
2020/12/22 08:54:10;;;;;;;30.55;21.75;;;205.00;1868.80;;;;;;5079406;28;20059;-67
2020/12/22 08:56:37;;;;;;;17.17;10.85;;;205.00;1843.20;;;;;;5079337;28;20024;-67
2020/12/22 08:59:06;;;;;;;21.08;12.70;;;205.00;1868.80;;;;;;5073243;28;20039;-67
2020/12/22 09:01:38;;;;;;;20.88;13.52;;;205.10;1868.80;;;;;;5074224;28;20033;-64
2020/12/22 09:04:04;;;;;;;24.02;13.55;;;205.20;1843.20;;;;;;5075100;28;20066;-66
2020/12/22 09:06:33;;;;;;;20.08;11.48;;;205.10;1843.20;;;;;;5076817;28;20407;-66
2020/12/22 09:09:00;;;;;;;26.50;13.07;;;205.10;1843.20;;;;;;5078160;28;20330;-67
2020/12/22 09:11:26;;;;;;;29.02;14.38;;;205.10;1843.20;;;;;;5077842;28;20448;-66
2020/12/22 09:14:18;;;;;;;19.83;12.27;;;205.20;1843.20;;;;;;5077449;28;20024;-67
2020/12/22 09:16:57;;;;;;;17.83;9.70;;;205.40;1843.20;;;;;;5076641;28;20036;-66
2020/12/22 09:19:30;;;;;;;21.13;12.60;;;205.50;1817.60;;;;;;5077763;28;20037;-66
2020/12/22 09:22:01;;;;;;;19.73;12.70;;;205.50;1817.60;;;;;;5078337;28;20024;-67
2020/12/22 09:24:27;;;;;;;25.98;15.85;;;205.60;1817.60;;;;;;5077630;28;20035;-66
2020/12/22 09:27:02;;;;;;;17.33;10.93;;;205.50;1817.60;;;;;;5078031;28;20047;-68
2020/12/22 09:29:29;;;;;;;18.27;9.73;;;205.40;1817.60;;;;;;5077467;28;20031;-65
2020/12/22 09:31:56;;;;;;;17.80;11.18;;;205.40;1817.60;;;;;;5077933;28;20028;-65
2020/12/22 09:34:23;;;;;;;16.77;9.13;;;205.40;1817.60;;;;;;5076719;28;20029;-66
2020/12/22 09:36:51;;;;;;;19.98;11.63;;;205.10;1843.20;;;;;;5078278;28;20066;-65
2020/12/22 09:39:18;;;;;;;16.65;9.77;;;205.30;1843.20;;;;;;5077348;28;20060;-67
2020/12/22 09:41:44;;;;;;;19.65;9.88;;;205.30;1843.20;;;;;;5077721;28;20025;-65
2020/12/22 09:44:10;;;;;;;21.08;11.20;;;205.30;1843.20;;;;;;5077524;28;20024;-65
2020/12/22 09:46:36;;;;;;;18.58;9.90;;;205.40;1843.20;;;;;;5077268;28;20020;-64
2020/12/22 09:49:06;;;;;;;21.42;12.30;;;205.50;1817.60;;;;;;5077616;28;20137;-65
2020/12/22 09:51:32;;;;;;;27.52;16.75;;;205.50;1817.60;;;;;;5078130;28;20024;-65
2020/12/22 09:54:11;;;;;;;19.85;12.48;;;205.40;1817.60;;;;;;5077286;28;20021;-67
2020/12/22 09:56:37;;;;;;;27.13;14.55;;;205.50;1817.60;;;;;;5077084;28;20035;-66
2020/12/22 09:59:03;;;;;;;21.05;11.73;;;205.60;1817.60;;;;;;5076456;28;20032;-67
2020/12/22 10:01:29;;;;;;;27.77;14.05;;;205.60;1817.60;;;;;;5075578;28;20024;-67
2020/12/22 10:03:55;;;;;;;28.45;13.07;;;205.70;1817.60;;;;;;5076807;28;20025;-66
2020/12/22 10:06:25;;;;;;;19.35;10.95;;;230.40;1792.00;;;;;;5074564;28;20448;-67
2020/12/22 10:08:52;;;;;;;16.23;9.77;;;230.40;1792.00;;;;;;5076534;28;20024;-66
2020/12/22 10:11:19;;;;;;;20.02;9.57;;;205.70;1792.00;;;;;;5077013;28;20436;-68
2020/12/22 10:13:45;;;;;;;14.32;8.98;;;205.70;1792.00;;;;;;5076830;28;20024;-66
2020/12/22 10:16:17;;;;;;;18.05;10.45;;;205.70;1792.00;;;;;;5076529;28;20031;-65
2020/12/22 10:18:43;;;;;;;20.02;10.80;;;230.40;1792.00;;;;;;5075108;28;20028;-67
2020/12/22 10:21:11;;;;;;;16.27;10.25;;;205.70;1817.60;;;;;;5074999;28;20182;-65
2020/12/22 10:23:39;;;;;;;26.30;15.00;;;230.40;1792.00;;;;;;5076918;28;20055;-67
2020/12/22 10:26:07;;;;;;;20.80;11.55;;;230.40;1792.00;;;;;;5074176;28;20025;-65
2020/12/22 10:28:36;;;;;;;18.98;10.38;;;205.70;1792.00;;;;;;5077240;28;20020;-66
2020/12/22 10:31:02;;;;;;;;;;;230.40;1792.00;;;;;;5074536;28;20047;-66
2020/12/22 10:33:28;;;;;;;15.63;9.20;;;205.70;1792.00;;;;;;5070544;28;19908;-67
2020/12/22 10:35:55;;;;;;;19.95;11.43;;;205.60;1817.60;;;;;;5062556;28;20070;-67
2020/12/22 10:38:21;;;;;;;20.50;10.73;;;205.60;1817.60;;;;;;5054291;28;20060;-67
2020/12/22 10:40:48;;;;;;;16.48;9.98;;;205.60;1817.60;;;;;;5055513;28;20381;-68
2020/12/22 10:43:14;;;;;;;15.55;8.93;;;205.50;1817.60;;;;;;5058119;28;20123;-67
2020/12/22 10:45:40;;;;;;;15.20;9.30;;;205.60;1792.00;;;;;;5054792;28;20115;-68
2020/12/22 10:48:07;;;;;;;15.95;9.77;;;205.60;1817.60;;;;;;5057304;28;20029;-66
2020/12/22 10:50:37;;;;;;;794.63;491.88;;;205.50;1817.60;;;;;;5058902;28;20450;-67
2020/12/22 10:53:04;;;;;;;56.13;33.55;;;205.70;1817.60;;;;;;5063347;28;20036;-66
2020/12/22 10:55:32;;;;;;;21.17;11.02;;;205.60;1817.60;;;;;;5061933;28;20021;-68
2020/12/22 10:57:58;;;;;;;48.55;29.95;;;205.60;1792.00;;;;;;5062254;28;20349;-68
2020/12/22 11:00:24;;;;;;;18.98;11.05;;;230.40;1792.00;;;;;;5063761;28;20095;-67
2020/12/22 11:02:53;;;;;;;19.23;11.50;;;230.40;1792.00;;;;;;5053847;28;20036;-67
2020/12/22 11:08:07;;;;;;;20.70;12.05;;;230.40;1792.00;;;;;;5053869;28;20082;-67
2020/12/22 11:10:33;;;;;;;19.00;10.77;;;205.70;1792.00;;;;;;5054121;28;20358;-68
2020/12/22 11:12:59;;;;;;;21.63;11.13;;;230.40;1792.00;;;;;;5055905;28;20175;-67
2020/12/22 11:15:25;;;;;;;25.05;12.73;;;230.50;1792.00;;;;;;5064710;28;20477;-66
2020/12/22 11:17:51;;;;;;;43.05;27.45;;;230.50;1792.00;;;;;;5066003;28;20039;-66
2020/12/22 11:20:17;;;;;;;20.83;11.68;;;230.40;1792.00;;;;;;5065726;28;20029;-67
2020/12/22 11:22:43;;;;;;;18.75;12.73;;;230.60;1792.00;;;;;;5067591;28;20028;-66
2020/12/22 11:25:09;;;;;;;18.60;10.93;;;230.60;1792.00;;;;;;5076763;28;20028;-67
2020/12/22 11:27:35;;;;;;;18.15;11.23;;;230.40;1792.00;;;;;;5078126;28;20024;-67
2020/12/22 11:30:01;;;;;;;25.90;11.05;;;230.50;1792.00;;;;;;5078354;28;20036;-68
2020/12/22 11:32:26;;;;;;;16.67;9.45;;;230.50;1792.00;;;;;;5077783;28;20107;-67
2020/12/22 11:34:52;;;;;;;25.05;14.98;;;205.70;1792.00;;;;;;5078232;28;20173;-67
2020/12/22 11:37:18;;;;;;;15.32;10.15;;;205.70;1817.60;;;;;;5078257;28;20036;-67
2020/12/22 11:39:44;;;;;;;18.17;11.27;;;205.70;1817.60;;;;;;5077779;28;20162;-64
2020/12/22 11:42:09;;;;;;;22.45;12.93;;;230.40;1817.60;;;;;;5078238;28;20024;-67
2020/12/22 11:44:35;;;;;;;41.92;17.13;;;205.70;1817.60;;;;;;5077868;28;20024;-66
2020/12/22 11:47:01;;;;;;;24.77;14.30;;;205.60;1843.20;;;;;;5077577;28;20025;-66
2020/12/22 11:49:28;;;;;;;21.90;11.77;;;205.50;1817.60;;;;;;5078133;28;20032;-65
2020/12/22 11:52:00;;;;;;;22.17;13.15;;;205.30;1843.20;;;;;;5077837;28;20302;-68
2020/12/22 11:54:26;;;;;;;25.85;12.75;;;205.40;1843.20;;;;;;5077763;28;20037;-67
2020/12/22 11:56:52;;;;;;;23.10;14.18;;;205.30;1843.20;;;;;;5074228;28;20029;-67
2020/12/22 11:59:18;;;;;;;22.35;12.95;;;205.30;1868.80;;;;;;5059988;28;20044;-65
2020/12/22 12:01:45;;;;;;;35.25;20.42;;;205.30;1868.80;;;;;;5064849;28;20106;-67
2020/12/22 12:04:11;;;;;;;50.08;27.05;;;205.30;1868.80;;;;;;5058693;28;20141;-67
2020/12/22 12:06:37;;;;;;;22.83;12.60;;;205.40;1868.80;;;;;;5057172;28;20048;-66
2020/12/22 12:09:05;;;;;;;32.63;19.50;;;205.30;1868.80;;;;;;5057636;28;20110;-67
2020/12/22 12:11:32;;;;;;;26.25;13.45;;;205.30;1868.80;;;;;;5056082;28;20685;-67
2020/12/22 12:13:57;;;;;;;52.25;17.40;;;205.40;1868.80;;;;;;5062432;28;20039;-66